Time;durP1;ratioP1;P1;durP2;ratioP2;P2;SDS_P1;SDS_P2;PMS_P1;PMS_P2;Temp;Humidity;BMP_temperature;BMP_pressure;BME280_temperature;BME280_humidity;BME280_pressure;Samples;Min_cycle;Max_cycle;Signal;HPM_P1;HPM_P2
2021/09/25 00:00:01;;;;;;;0.40;0.30;;;17.60;99.90;;;;;;4974913;28;20966;-66
2021/09/25 00:02:27;;;;;;;0.40;0.20;;;17.50;99.90;;;;;;4975004;28;20431;-66
2021/09/25 00:04:52;;;;;;;3.80;2.20;;;17.40;99.90;;;;;;4975115;28;20520;-66
2021/09/25 00:07:18;;;;;;;0.40;0.20;;;17.50;99.90;;;;;;4974822;28;20221;-66
2021/09/25 00:09:43;;;;;;;2.50;2.00;;;17.40;99.90;;;;;;4974953;28;20191;-66
2021/09/25 00:12:11;;;;;;;18.63;1.33;;;17.40;99.90;;;;;;4974890;28;20624;-66
2021/09/25 00:14:41;;;;;;;0.40;0.20;;;17.40;99.90;;;;;;4975073;28;20249;-66
2021/09/25 00:17:09;;;;;;;0.70;0.70;;;17.50;99.90;;;;;;4974909;28;20431;-67
2021/09/25 00:19:35;;;;;;;1.53;1.43;;;17.60;99.90;;;;;;4975012;28;20431;-67
2021/09/25 00:22:01;;;;;;;0.70;0.70;;;17.40;99.90;;;;;;4974754;28;20916;-67
2021/09/25 00:24:27;;;;;;;1.90;1.73;;;17.40;99.90;;;;;;4974706;28;20887;-68
2021/09/25 00:26:53;;;;;;;0.40;0.20;;;17.40;99.90;;;;;;4974546;28;20265;-68
2021/09/25 00:29:18;;;;;;;0.70;0.47;;;17.40;99.90;;;;;;4974677;28;20753;-66
2021/09/25 00:31:44;;;;;;;0.80;0.53;;;17.40;99.90;;;;;;4975261;28;20187;-66
2021/09/25 00:34:10;;;;;;;0.50;0.30;;;17.40;99.90;;;;;;4975243;28;20695;-66
2021/09/25 00:36:36;;;;;;;0.40;0.20;;;17.40;99.90;;;;;;4974770;28;20431;-65
2021/09/25 00:39:02;;;;;;;2.83;1.43;;;17.40;99.90;;;;;;4974811;28;20763;-68
2021/09/25 00:41:28;;;;;;;0.40;0.20;;;17.40;99.90;;;;;;4974062;28;20179;-68
2021/09/25 00:43:53;;;;;;;1.13;1.00;;;17.40;99.90;;;;;;4974814;28;20451;-68
2021/09/25 00:46:21;;;;;;;1.40;1.23;;;17.30;99.90;;;;;;4974894;28;20211;-66
2021/09/25 00:48:47;;;;;;;0.40;0.20;;;17.30;99.90;;;;;;4974587;28;20202;-66
2021/09/25 00:51:13;;;;;;;0.50;0.40;;;17.30;99.90;;;;;;4974817;28;20427;-66
2021/09/25 00:53:40;;;;;;;2.00;0.93;;;17.20;99.90;;;;;;4978693;28;20423;-66
2021/09/25 00:56:08;;;;;;;1.83;1.30;;;17.20;99.90;;;;;;4978218;28;20644;-65
2021/09/25 00:58:34;;;;;;;1.27;1.03;;;17.20;99.90;;;;;;4977992;28;20805;-66
2021/09/25 01:01:00;;;;;;;0.40;0.20;;;17.20;99.90;;;;;;4978093;28;20489;-65
2021/09/25 01:03:25;;;;;;;0.40;0.20;;;17.20;99.90;;;;;;4978093;28;20752;-69
2021/09/25 01:05:51;;;;;;;1.00;0.77;;;17.20;99.90;;;;;;4978084;28;20563;-66
2021/09/25 01:08:22;;;;;;;0.40;0.10;;;17.10;99.90;;;;;;4977583;28;20535;-66
2021/09/25 01:10:48;;;;;;;0.40;0.10;;;17.00;99.90;;;;;;4977888;28;20775;-66
2021/09/25 01:13:14;;;;;;;0.40;0.20;;;17.00;99.90;;;;;;4977958;28;20422;-66
2021/09/25 01:15:39;;;;;;;0.40;0.20;;;17.00;99.90;;;;;;4978536;28;20481;-68
2021/09/25 01:18:05;;;;;;;1.13;0.87;;;17.00;99.90;;;;;;4977899;28;20194;-66
2021/09/25 01:20:30;;;;;;;2.00;1.43;;;17.00;99.90;;;;;;4977713;28;20188;-66
2021/09/25 01:22:56;;;;;;;1.30;1.20;;;17.00;99.90;;;;;;4978018;28;20187;-66
2021/09/25 01:25:22;;;;;;;0.40;0.20;;;16.90;99.90;;;;;;4976766;28;20278;-66
2021/09/25 01:27:47;;;;;;;0.40;0.20;;;17.00;99.90;;;;;;4977658;28;20222;-65
2021/09/25 01:30:15;;;;;;;0.60;0.40;;;17.10;99.90;;;;;;4977569;28;20179;-65
2021/09/25 01:32:42;;;;;;;1.73;0.87;;;17.20;99.90;;;;;;4977523;28;20242;-66
2021/09/25 01:35:09;;;;;;;0.50;0.43;;;17.20;99.90;;;;;;4977532;28;20438;-67
2021/09/25 01:37:34;;;;;;;0.50;0.50;;;17.20;99.90;;;;;;4977360;28;20493;-67
2021/09/25 01:40:00;;;;;;;0.40;0.20;;;17.10;99.90;;;;;;4976178;28;20442;-67
2021/09/25 01:42:26;;;;;;;0.40;0.20;;;17.10;99.90;;;;;;4977362;28;20183;-67
2021/09/25 01:44:52;;;;;;;0.40;0.20;;;17.20;99.90;;;;;;4977422;28;20187;-67
2021/09/25 01:47:18;;;;;;;0.50;0.30;;;17.20;99.90;;;;;;4976131;28;20212;-66
2021/09/25 01:49:44;;;;;;;0.40;0.20;;;17.20;99.90;;;;;;4976051;28;20472;-67
2021/09/25 01:52:10;;;;;;;0.50;0.43;;;17.20;99.90;;;;;;4977149;28;20431;-67
2021/09/25 01:54:36;;;;;;;0.40;0.20;;;17.10;99.90;;;;;;4977173;28;20526;-67
2021/09/25 01:57:01;;;;;;;0.60;0.60;;;17.10;99.90;;;;;;4975962;28;20180;-67
2021/09/25 01:59:27;;;;;;;1.10;0.90;;;17.00;99.90;;;;;;4977160;28;20184;-67
2021/09/25 02:01:53;;;;;;;10.47;1.37;;;17.00;99.90;;;;;;4976993;28;20184;-65
2021/09/25 02:04:19;;;;;;;0.40;0.20;;;16.90;99.90;;;;;;4976160;28;20191;-67
2021/09/25 02:06:44;;;;;;;2.63;2.43;;;16.90;99.90;;;;;;4976777;28;20806;-67
2021/09/25 02:09:10;;;;;;;0.60;0.50;;;17.00;99.90;;;;;;4977446;28;20503;-68
2021/09/25 02:11:35;;;;;;;0.40;0.30;;;16.90;99.90;;;;;;4976914;28;20175;-68
2021/09/25 02:14:01;;;;;;;0.40;0.20;;;16.90;99.90;;;;;;4978330;28;20172;-67
2021/09/25 02:16:26;;;;;;;3.83;1.00;;;16.90;99.90;;;;;;4976807;28;20189;-67
2021/09/25 02:18:52;;;;;;;1.13;0.87;;;16.80;99.90;;;;;;4976664;28;20182;-66
2021/09/25 02:21:18;;;;;;;1.23;0.87;;;16.70;99.90;;;;;;4976741;28;20649;-66
2021/09/25 02:23:43;;;;;;;0.40;0.20;;;16.70;99.90;;;;;;4975721;28;20625;-66
2021/09/25 02:26:10;;;;;;;0.60;0.40;;;16.80;99.90;;;;;;4976529;28;20176;-66
2021/09/25 02:28:35;;;;;;;0.50;0.30;;;16.80;99.90;;;;;;4976469;28;20184;-67
2021/09/25 02:31:01;;;;;;;0.40;0.20;;;16.80;99.90;;;;;;4976474;28;20427;-67
2021/09/25 02:33:27;;;;;;;1.17;0.60;;;16.80;99.90;;;;;;4976430;28;20175;-67
2021/09/25 02:35:53;;;;;;;2.43;0.73;;;16.60;99.90;;;;;;4976861;28;20426;-68
2021/09/25 02:38:20;;;;;;;0.40;0.10;;;16.70;99.90;;;;;;4975141;28;20430;-69
2021/09/25 02:40:46;;;;;;;1.05;0.95;;;16.80;99.90;;;;;;4975443;28;20501;-66
2021/09/25 02:43:11;;;;;;;1.53;1.43;;;16.80;99.90;;;;;;4976205;28;20183;-66
2021/09/25 02:45:37;;;;;;;2.30;1.40;;;16.80;99.90;;;;;;4975199;28;20435;-66
2021/09/25 02:48:03;;;;;;;0.43;0.40;;;16.80;99.90;;;;;;4975909;28;20219;-66
2021/09/25 02:50:29;;;;;;;0.50;0.40;;;16.70;99.90;;;;;;4975933;28;20446;-66
2021/09/25 02:52:55;;;;;;;0.83;0.63;;;16.70;99.90;;;;;;4975636;28;20443;-66
2021/09/25 02:55:20;;;;;;;1.53;1.43;;;16.70;99.90;;;;;;4975428;28;20653;-66
2021/09/25 02:57:47;;;;;;;0.67;0.30;;;16.60;99.90;;;;;;4976321;28;20179;-66
2021/09/25 03:00:15;;;;;;;1.70;1.00;;;16.70;99.90;;;;;;4974851;28;20207;-66
2021/09/25 03:02:41;;;;;;;1.57;0.50;;;16.60;99.90;;;;;;4975994;28;20442;-66
2021/09/25 03:05:08;;;;;;;5.13;3.83;;;16.70;99.90;;;;;;4975915;28;20423;-66
2021/09/25 03:07:34;;;;;;;0.40;0.30;;;16.80;99.90;;;;;;4975712;28;20245;-66
2021/09/25 03:10:00;;;;;;;0.40;0.20;;;16.90;99.90;;;;;;4975650;28;20833;-66
2021/09/25 03:12:25;;;;;;;1.77;1.23;;;16.80;99.90;;;;;;4975664;28;20203;-66
2021/09/25 03:14:51;;;;;;;0.50;0.40;;;16.80;99.90;;;;;;4975460;28;20442;-66
2021/09/25 03:17:17;;;;;;;2.00;1.90;;;16.80;99.90;;;;;;4975473;28;20176;-67
2021/09/25 03:19:46;;;;;;;0.40;0.30;;;16.80;99.90;;;;;;4974612;28;20187;-68
2021/09/25 03:22:12;;;;;;;3.50;2.37;;;16.80;99.90;;;;;;4975446;28;20194;-68
2021/09/25 03:24:37;;;;;;;0.93;0.80;;;16.80;99.90;;;;;;4975462;28;20831;-68
2021/09/25 03:27:03;;;;;;;0.50;0.33;;;16.80;99.90;;;;;;4975462;28;20222;-68
2021/09/25 03:29:28;;;;;;;1.90;0.67;;;16.70;99.90;;;;;;4975190;28;20176;-68
2021/09/25 03:31:54;;;;;;;0.57;0.53;;;16.80;99.90;;;;;;4975762;28;20183;-68
2021/09/25 03:34:19;;;;;;;5.90;3.90;;;16.70;99.90;;;;;;4975344;28;20179;-68
2021/09/25 03:36:45;;;;;;;1.60;1.50;;;16.70;99.90;;;;;;4975227;28;20628;-68
2021/09/25 03:39:10;;;;;;;0.80;0.80;;;16.70;99.90;;;;;;4975503;28;20184;-68
2021/09/25 03:41:36;;;;;;;0.53;0.20;;;16.80;99.90;;;;;;4974352;28;20199;-68
2021/09/25 03:44:03;;;;;;;0.63;0.53;;;16.80;99.90;;;;;;4975586;28;20183;-67
2021/09/25 03:46:28;;;;;;;0.90;0.40;;;16.80;99.90;;;;;;4975159;28;20203;-69
2021/09/25 03:48:54;;;;;;;1.40;1.30;;;16.80;99.90;;;;;;4974826;28;20537;-69
2021/09/25 03:51:20;;;;;;;2.40;1.50;;;16.80;99.90;;;;;;4975095;28;20176;-69
2021/09/25 03:53:46;;;;;;;9.07;3.07;;;16.90;99.90;;;;;;4974480;28;20179;-69
2021/09/25 03:56:11;;;;;;;1.73;1.63;;;16.80;99.90;;;;;;4974028;28;20431;-69
2021/09/25 03:58:38;;;;;;;2.67;0.73;;;16.80;99.90;;;;;;4974020;28;20303;-69
2021/09/25 04:01:04;;;;;;;0.40;0.20;;;16.80;99.90;;;;;;4973839;28;20422;-70
2021/09/25 04:03:30;;;;;;;12.90;1.10;;;16.80;99.90;;;;;;4974100;28;20431;-69
2021/09/25 04:05:58;;;;;;;0.40;0.20;;;16.80;99.90;;;;;;4975017;28;20426;-67
2021/09/25 04:08:27;;;;;;;3.90;1.43;;;16.80;99.90;;;;;;4974752;28;20281;-67
2021/09/25 04:10:52;;;;;;;0.60;0.50;;;16.90;99.90;;;;;;4974939;28;20942;-66
2021/09/25 04:13:18;;;;;;;0.73;0.73;;;17.00;99.90;;;;;;4974832;28;20454;-67
2021/09/25 04:15:43;;;;;;;2.70;2.13;;;17.00;99.90;;;;;;4975042;28;20190;-66
2021/09/25 04:18:09;;;;;;;1.23;1.23;;;16.90;99.90;;;;;;4974653;28;20183;-67
2021/09/25 04:20:35;;;;;;;1.70;1.20;;;16.80;99.90;;;;;;4973841;28;20567;-66
2021/09/25 04:23:01;;;;;;;0.40;0.20;;;16.90;99.90;;;;;;4974789;28;20193;-67
2021/09/25 04:25:30;;;;;;;0.40;0.30;;;16.90;99.90;;;;;;4974632;28;20435;-67
2021/09/25 04:28:04;;;;;;;0.70;0.47;;;16.80;99.90;;;;;;4976336;28;20974;-67
2021/09/25 04:30:30;;;;;;;6.20;1.33;;;16.80;99.90;;;;;;4978611;28;20423;-67
2021/09/25 04:32:55;;;;;;;1.87;1.00;;;16.90;99.90;;;;;;4978633;28;20453;-67
2021/09/25 04:35:21;;;;;;;0.40;0.20;;;17.00;99.90;;;;;;4978700;28;20210;-67
2021/09/25 04:37:46;;;;;;;0.50;0.50;;;17.00;99.90;;;;;;4978514;28;20508;-67
2021/09/25 04:40:12;;;;;;;0.50;0.40;;;17.10;99.90;;;;;;4978879;28;20175;-67
2021/09/25 04:42:38;;;;;;;0.33;0.20;;;16.90;99.90;;;;;;4978425;28;20207;-67
2021/09/25 04:45:04;;;;;;;0.87;0.70;;;16.90;99.90;;;;;;4978668;28;20257;-67
2021/09/25 04:47:30;;;;;;;0.50;0.47;;;17.00;99.90;;;;;;4978258;28;20211;-67
2021/09/25 04:49:55;;;;;;;2.40;2.17;;;17.00;99.90;;;;;;4978241;28;20439;-66
2021/09/25 04:52:21;;;;;;;1.77;1.10;;;16.90;99.90;;;;;;4978231;28;20180;-68
2021/09/25 04:54:46;;;;;;;1.23;1.07;;;16.90;99.90;;;;;;4977307;28;20191;-68
2021/09/25 04:57:12;;;;;;;2.37;2.20;;;16.90;99.90;;;;;;4978260;28;20215;-68
2021/09/25 04:59:37;;;;;;;3.50;2.20;;;16.90;99.90;;;;;;4977999;28;20183;-68
2021/09/25 05:02:03;;;;;;;0.40;0.27;;;16.80;99.90;;;;;;4976350;28;20192;-68
2021/09/25 05:04:28;;;;;;;4.53;4.13;;;16.90;99.90;;;;;;4978197;28;20606;-68
2021/09/25 05:06:54;;;;;;;2.53;2.33;;;16.80;99.90;;;;;;4977914;28;20589;-68
2021/09/25 05:09:22;;;;;;;2.40;2.20;;;17.00;99.90;;;;;;4978019;28;20180;-67
2021/09/25 05:11:48;;;;;;;2.50;1.60;;;17.00;99.90;;;;;;4977941;28;20178;-67
2021/09/25 05:14:13;;;;;;;0.40;0.20;;;17.00;99.90;;;;;;4977944;28;20434;-67
2021/09/25 05:16:39;;;;;;;1.80;1.70;;;17.00;99.90;;;;;;4977872;28;20509;-67
2021/09/25 05:19:04;;;;;;;2.10;0.83;;;17.00;99.90;;;;;;4977735;28;20234;-67
2021/09/25 05:21:30;;;;;;;0.83;0.33;;;16.90;99.90;;;;;;4978244;28;20490;-67
2021/09/25 05:23:56;;;;;;;0.63;0.40;;;17.00;99.90;;;;;;4977825;28;20194;-67
2021/09/25 05:26:21;;;;;;;0.80;0.67;;;17.00;99.90;;;;;;4977672;28;20184;-67
2021/09/25 05:28:47;;;;;;;3.90;2.10;;;17.10;99.90;;;;;;4978469;28;20184;-69
2021/09/25 05:31:12;;;;;;;2.03;1.53;;;17.00;99.90;;;;;;4977819;28;20179;-69
2021/09/25 05:33:39;;;;;;;0.40;0.30;;;17.00;99.90;;;;;;4977592;28;20214;-67
2021/09/25 05:36:06;;;;;;;0.40;0.40;;;17.00;99.90;;;;;;4977718;28;20679;-67
2021/09/25 05:38:32;;;;;;;0.40;0.30;;;17.10;99.90;;;;;;4976571;28;20195;-66
2021/09/25 05:40:58;;;;;;;1.50;1.17;;;17.10;99.90;;;;;;4977724;28;20435;-67
2021/09/25 05:43:23;;;;;;;0.83;0.83;;;17.10;99.90;;;;;;4986072;28;20450;-67
2021/09/25 05:45:49;;;;;;;0.50;0.40;;;17.30;99.90;;;;;;4994804;28;20201;-66
2021/09/25 05:48:14;;;;;;;0.83;0.83;;;17.40;99.90;;;;;;4996173;28;20225;-66
2021/09/25 05:50:40;;;;;;;0.40;0.40;;;17.40;99.90;;;;;;4995811;28;20449;-68
2021/09/25 05:53:06;;;;;;;1.70;1.60;;;17.40;99.90;;;;;;4997557;28;20608;-66
2021/09/25 05:55:31;;;;;;;73.80;7.13;;;17.40;99.90;;;;;;4997166;28;20190;-66
2021/09/25 05:58:01;;;;;;;7.07;4.20;;;17.30;99.90;;;;;;4997330;28;20187;-69
2021/09/25 06:00:30;;;;;;;2.50;1.13;;;17.20;99.90;;;;;;4996196;28;20195;-68
2021/09/25 06:02:57;;;;;;;2.73;1.90;;;17.20;99.90;;;;;;4997912;28;20426;-67
2021/09/25 06:05:23;;;;;;;1.60;1.50;;;17.20;99.90;;;;;;4996464;28;20438;-67
2021/09/25 06:07:49;;;;;;;0.50;0.50;;;17.30;99.90;;;;;;4997131;28;20523;-68
2021/09/25 06:10:14;;;;;;;0.40;0.20;;;17.30;99.90;;;;;;4996001;28;20513;-67
2021/09/25 06:12:41;;;;;;;0.40;0.20;;;17.30;99.90;;;;;;4996248;28;20183;-66
2021/09/25 06:15:08;;;;;;;2.97;2.00;;;17.30;99.90;;;;;;4996223;28;20179;-68
2021/09/25 06:17:34;;;;;;;1.43;1.20;;;17.30;99.90;;;;;;4996089;28;20422;-68
2021/09/25 06:19:59;;;;;;;1.27;0.87;;;17.40;99.90;;;;;;4995934;28;20505;-68
2021/09/25 06:22:26;;;;;;;3.13;2.73;;;17.50;99.90;;;;;;4996185;28;20588;-69
2021/09/25 06:24:52;;;;;;;0.50;0.50;;;17.40;99.90;;;;;;4996114;28;20233;-69
2021/09/25 06:27:18;;;;;;;0.50;0.43;;;17.40;99.90;;;;;;4995849;28;20552;-68
2021/09/25 06:29:44;;;;;;;1.53;1.47;;;17.50;99.90;;;;;;4995713;28;21119;-68
2021/09/25 06:32:09;;;;;;;0.40;0.20;;;17.60;99.90;;;;;;4996020;28;20887;-69
2021/09/25 06:34:35;;;;;;;0.70;0.63;;;17.90;99.90;;;;;;4995909;28;20532;-69
2021/09/25 06:37:01;;;;;;;0.73;0.73;;;18.10;99.90;;;;;;4995824;28;20183;-68
2021/09/25 06:39:27;;;;;;;1.60;1.50;;;18.40;99.90;;;;;;4995667;28;20190;-69
2021/09/25 06:41:52;;;;;;;0.50;0.43;;;18.40;99.90;;;;;;4995620;28;20875;-69
2021/09/25 06:44:18;;;;;;;0.87;0.70;;;18.40;99.90;;;;;;4995758;28;20550;-67
2021/09/25 06:46:43;;;;;;;1.13;1.13;;;18.20;99.90;;;;;;4995532;28;20214;-67
2021/09/25 06:49:09;;;;;;;0.40;0.20;;;18.10;99.90;;;;;;4995179;28;20249;-67
2021/09/25 06:51:35;;;;;;;1.00;0.63;;;18.20;99.90;;;;;;4992574;28;20194;-67
2021/09/25 06:54:00;;;;;;;0.40;0.20;;;18.20;99.90;;;;;;4993796;28;20182;-68
2021/09/25 06:56:28;;;;;;;0.93;0.93;;;18.40;99.90;;;;;;4995607;28;20187;-67
2021/09/25 06:58:54;;;;;;;3.10;2.53;;;18.70;99.90;;;;;;4994947;28;20175;-66
2021/09/25 07:01:19;;;;;;;4.57;3.90;;;18.80;99.90;;;;;;4995436;28;20426;-66
2021/09/25 07:03:45;;;;;;;0.93;0.90;;;18.60;99.90;;;;;;4995324;28;20232;-67
2021/09/25 07:06:11;;;;;;;0.40;0.30;;;18.40;99.90;;;;;;4995325;28;20248;-66
2021/09/25 07:08:37;;;;;;;3.47;3.27;;;18.30;99.90;;;;;;4994980;28;20972;-66
2021/09/25 07:11:02;;;;;;;2.00;1.23;;;18.30;99.90;;;;;;4995082;28;20418;-68
2021/09/25 07:13:28;;;;;;;0.40;0.20;;;18.10;99.90;;;;;;4995264;28;20209;-67
2021/09/25 07:15:54;;;;;;;0.67;0.20;;;18.10;99.90;;;;;;4995115;28;20529;-67
2021/09/25 07:18:20;;;;;;;0.70;0.30;;;18.10;99.90;;;;;;4994847;28;20432;-67
2021/09/25 07:20:49;;;;;;;0.40;0.20;;;18.10;99.90;;;;;;4994574;28;20186;-69
2021/09/25 07:23:15;;;;;;;0.80;0.77;;;18.20;99.90;;;;;;4994099;28;20507;-67
2021/09/25 07:25:40;;;;;;;0.50;0.40;;;18.30;99.90;;;;;;4995404;28;20741;-68
2021/09/25 07:28:07;;;;;;;1.47;1.37;;;18.10;99.90;;;;;;4995230;28;20210;-66
2021/09/25 07:30:36;;;;;;;0.70;0.53;;;18.20;99.90;;;;;;4995452;28;20179;-67
2021/09/25 07:33:05;;;;;;;0.40;0.20;;;18.30;99.90;;;;;;4994248;28;20484;-68
2021/09/25 07:35:34;;;;;;;2.10;1.60;;;18.20;99.90;;;;;;4995061;28;20500;-69
2021/09/25 07:38:00;;;;;;;0.80;0.80;;;18.40;99.90;;;;;;4995412;28;20444;-67
2021/09/25 07:40:26;;;;;;;0.40;0.20;;;18.60;99.90;;;;;;4995044;28;20473;-67
2021/09/25 07:42:52;;;;;;;0.40;0.20;;;18.60;99.90;;;;;;4994592;28;20911;-68
2021/09/25 07:45:17;;;;;;;1.27;0.83;;;18.50;99.90;;;;;;4994663;28;20270;-68
2021/09/25 07:47:43;;;;;;;0.77;0.77;;;18.50;99.90;;;;;;4994781;28;20461;-67
2021/09/25 07:50:09;;;;;;;3.53;2.83;;;18.50;99.90;;;;;;4994631;28;20194;-69
2021/09/25 07:52:39;;;;;;;0.77;0.77;;;18.50;99.90;;;;;;4994484;28;20183;-68
2021/09/25 07:55:06;;;;;;;0.40;0.20;;;18.70;99.90;;;;;;4994465;28;20433;-68
2021/09/25 07:57:32;;;;;;;0.40;0.20;;;18.80;99.90;;;;;;4993528;28;20444;-68
2021/09/25 07:59:57;;;;;;;0.40;0.20;;;19.00;99.90;;;;;;4993958;28;20891;-68
2021/09/25 08:02:23;;;;;;;4.57;1.53;;;19.30;99.90;;;;;;4993772;28;20210;-68
2021/09/25 08:04:48;;;;;;;1.97;1.27;;;19.30;99.90;;;;;;4994392;28;20655;-70
2021/09/25 08:07:14;;;;;;;2.00;1.73;;;19.10;99.90;;;;;;4994437;28;20206;-68
2021/09/25 08:09:40;;;;;;;1.03;0.93;;;19.20;99.90;;;;;;4994222;28;20206;-68
2021/09/25 08:12:05;;;;;;;0.40;0.20;;;19.10;99.90;;;;;;4994173;28;20547;-68
2021/09/25 08:14:31;;;;;;;0.50;0.40;;;18.90;99.90;;;;;;4994030;28;20175;-69
2021/09/25 08:16:56;;;;;;;0.70;0.67;;;18.80;99.90;;;;;;4994280;28;20418;-69
2021/09/25 08:19:22;;;;;;;1.23;0.37;;;19.00;99.90;;;;;;4994084;28;20190;-69
2021/09/25 08:21:48;;;;;;;1.20;0.83;;;19.00;99.90;;;;;;4994141;28;20183;-69
2021/09/25 08:24:13;;;;;;;1.73;0.90;;;18.90;99.90;;;;;;4994198;28;20269;-69
2021/09/25 08:26:39;;;;;;;1.13;1.03;;;18.90;99.90;;;;;;4993939;28;20217;-67
2021/09/25 08:29:05;;;;;;;1.33;1.27;;;19.10;99.90;;;;;;4994206;28;20541;-67
2021/09/25 08:31:30;;;;;;;0.50;0.33;;;19.10;99.90;;;;;;4994911;28;20175;-68
2021/09/25 08:33:56;;;;;;;0.80;0.80;;;19.30;99.90;;;;;;4994212;28;20175;-69
2021/09/25 08:36:22;;;;;;;0.67;0.40;;;19.20;99.90;;;;;;4994082;28;20551;-69
2021/09/25 08:38:48;;;;;;;0.40;0.20;;;19.40;99.90;;;;;;4994024;28;20528;-69
2021/09/25 08:41:15;;;;;;;1.00;0.87;;;19.50;99.90;;;;;;4993856;28;20707;-69
2021/09/25 08:43:40;;;;;;;1.67;1.03;;;19.70;99.90;;;;;;4993688;28;20436;-68
2021/09/25 08:46:08;;;;;;;0.40;0.17;;;19.60;99.90;;;;;;4994238;28;20426;-68
2021/09/25 08:48:34;;;;;;;0.40;0.20;;;20.00;99.90;;;;;;4993961;28;20470;-67
2021/09/25 08:51:00;;;;;;;0.80;0.60;;;20.10;99.90;;;;;;4993919;28;20500;-67
2021/09/25 08:53:26;;;;;;;0.53;0.47;;;20.10;99.90;;;;;;4993793;28;20425;-68
2021/09/25 08:55:52;;;;;;;2.30;1.90;;;20.00;99.90;;;;;;4994265;28;20422;-66
2021/09/25 08:58:19;;;;;;;0.40;0.20;;;20.10;99.90;;;;;;4992704;28;20193;-68
2021/09/25 09:00:47;;;;;;;0.50;0.50;;;20.20;99.90;;;;;;4994181;28;20911;-67
2021/09/25 09:03:40;;;;;;;0.50;0.30;;;20.30;99.90;;;;;;4994184;28;20465;-66
2021/09/25 09:06:09;;;;;;;1.33;0.83;;;20.40;99.90;;;;;;4993960;28;20456;-66
2021/09/25 09:08:36;;;;;;;2.67;2.47;;;20.20;99.90;;;;;;4993543;28;20497;-66
2021/09/25 09:11:02;;;;;;;5.97;5.47;;;20.20;99.90;;;;;;4994004;28;20426;-67
2021/09/25 09:13:29;;;;;;;0.93;0.83;;;20.30;99.90;;;;;;4994914;28;20977;-66
2021/09/25 09:15:54;;;;;;;0.73;0.73;;;20.10;99.90;;;;;;4997478;28;20492;-67
2021/09/25 09:18:22;;;;;;;3.00;2.73;;;20.10;99.90;;;;;;4997164;28;20489;-68
2021/09/25 09:21:23;;;;;;;0.50;0.30;;;20.10;99.90;;;;;;4996967;28;20183;-68
2021/09/25 09:23:52;;;;;;;4.20;2.73;;;20.40;99.90;;;;;;4996184;28;20910;-68
2021/09/25 09:26:20;;;;;;;0.90;0.70;;;20.50;99.90;;;;;;4997164;28;20494;-71
2021/09/25 09:28:47;;;;;;;6.57;2.00;;;20.50;99.90;;;;;;4996892;28;20438;-70
2021/09/25 09:31:14;;;;;;;2.57;2.13;;;20.30;99.90;;;;;;4996666;28;20452;-70
2021/09/25 09:33:51;;;;;;;0.70;0.63;;;20.40;99.90;;;;;;4997017;28;20437;-70
2021/09/25 09:36:26;;;;;;;0.83;0.83;;;20.60;99.90;;;;;;4996993;28;20500;-70
2021/09/25 09:38:53;;;;;;;0.40;0.20;;;20.60;99.90;;;;;;4997291;28;20441;-70
2021/09/25 09:41:25;;;;;;;0.83;0.67;;;20.90;68.60;;;;;;4997054;28;20426;-70
2021/09/25 09:43:52;;;;;;;0.40;0.20;;;21.00;1.00;;;;;;4996753;28;20449;-67
2021/09/25 09:46:18;;;;;;;0.80;0.60;;;20.70;77.60;;;;;;4998311;28;20446;-67
2021/09/25 09:48:45;;;;;;;1.03;0.50;;;20.40;99.90;;;;;;4996556;28;20531;-69
2021/09/25 09:51:11;;;;;;;1.10;0.60;;;20.40;99.90;;;;;;4996901;28;20458;-68
2021/09/25 09:53:46;;;;;;;0.40;0.20;;;20.40;99.90;;;;;;4997220;28;20440;-68
2021/09/25 09:56:24;;;;;;;2.87;2.60;;;20.50;99.90;;;;;;4996770;28;20425;-67
2021/09/25 09:59:00;;;;;;;1.70;1.23;;;20.60;99.90;;;;;;4996365;28;20507;-67
2021/09/25 10:01:27;;;;;;;0.40;0.10;;;20.60;51.30;;;;;;4996726;28;20437;-68
2021/09/25 10:03:53;;;;;;;0.63;0.63;;;20.70;95.40;;;;;;4996641;28;20779;-66
2021/09/25 10:06:19;;;;;;;5.03;1.63;;;20.90;94.20;;;;;;4996386;28;20430;-64
2021/09/25 10:08:45;;;;;;;0.53;0.53;;;20.70;79.70;;;;;;4996572;28;20183;-66
2021/09/25 10:11:11;;;;;;;0.40;0.20;;;20.70;72.20;;;;;;4996576;28;20977;-67
2021/09/25 10:13:41;;;;;;;0.67;0.67;;;20.90;99.90;;;;;;4996495;28;20495;-66
2021/09/25 10:16:08;;;;;;;1.70;1.60;;;21.10;45.50;;;;;;4996443;28;20514;-64
2021/09/25 10:18:35;;;;;;;1.10;1.00;;;21.10;1.00;;;;;;4996221;28;20456;-66
2021/09/25 10:21:03;;;;;;;0.50;0.30;;;21.20;1.00;;;;;;4995991;28;20516;-66
2021/09/25 10:23:32;;;;;;;0.40;0.20;;;21.50;1.00;;;;;;4996100;28;20425;-66
2021/09/25 10:25:58;;;;;;;0.87;0.60;;;21.60;1.00;;;;;;4994234;28;20434;-66
2021/09/25 10:28:29;;;;;;;0.40;0.20;;;21.40;1.00;;;;;;4995000;28;20959;-68
2021/09/25 10:30:55;;;;;;;0.40;0.20;;;21.40;1.00;;;;;;4996470;28;20484;-66
2021/09/25 10:33:24;;;;;;;1.90;1.80;;;21.90;1.00;;;;;;4996121;28;20434;-66
2021/09/25 10:35:51;;;;;;;0.70;0.63;;;22.30;1.00;;;;;;4996308;28;20825;-66
2021/09/25 10:38:35;;;;;;;3.37;2.33;;;22.10;1.00;;;;;;4995218;28;20438;-63
2021/09/25 10:41:19;;;;;;;1.23;0.67;;;22.00;1.00;;;;;;4996078;28;20462;-65
2021/09/25 10:43:48;;;;;;;0.70;0.60;;;21.80;1.00;;;;;;4995949;28;20465;-64
2021/09/25 10:46:15;;;;;;;1.10;1.00;;;21.90;1.00;;;;;;4996025;28;20942;-64
2021/09/25 10:48:52;;;;;;;0.50;0.40;;;21.90;1.00;;;;;;4995322;28;20974;-67
2021/09/25 10:51:20;;;;;;;0.73;0.23;;;22.20;1.00;;;;;;4995824;28;20516;-68
2021/09/25 10:53:49;;;;;;;0.50;0.30;;;22.40;1.00;;;;;;4995763;28;20437;-64
2021/09/25 10:56:24;;;;;;;1.67;0.97;;;22.40;99.90;;;;;;4995988;28;20881;-63
2021/09/25 10:59:04;;;;;;;0.73;0.60;;;22.10;1.00;;;;;;4995514;28;20425;-66
2021/09/25 11:01:40;;;;;;;1.13;1.07;;;21.60;1.00;;;;;;4995428;28;20422;-66
2021/09/25 11:04:22;;;;;;;0.50;0.37;;;21.20;1.00;;;;;;4990071;28;20430;-67
2021/09/25 11:06:54;;;;;;;1.70;1.53;;;21.00;32.50;;;;;;4984972;28;20951;-69
2021/09/25 11:09:40;;;;;;;0.73;0.73;;;21.00;55.10;;;;;;4984219;28;20501;-68
2021/09/25 11:12:14;;;;;;;1.13;0.50;;;20.80;66.10;;;;;;4984760;28;20915;-64
2021/09/25 11:14:49;;;;;;;1.40;1.30;;;20.80;99.90;;;;;;4986875;28;20513;-69
2021/09/25 11:17:17;;;;;;;1.90;1.30;;;21.00;87.50;;;;;;4988179;28;20441;-68
2021/09/25 11:19:48;;;;;;;1.23;1.03;;;21.20;1.00;;;;;;4985480;28;20522;-68
2021/09/25 11:22:23;;;;;;;0.50;0.30;;;21.20;1.00;;;;;;4984477;28;20514;-63
2021/09/25 11:25:00;;;;;;;0.40;0.20;;;21.40;1.00;;;;;;4983845;28;20772;-66
2021/09/25 11:27:29;;;;;;;0.40;0.20;;;21.40;1.00;;;;;;4984255;28;20624;-66
2021/09/25 11:29:56;;;;;;;1.10;1.00;;;21.70;1.00;;;;;;4984155;28;20431;-63
2021/09/25 11:32:28;;;;;;;1.20;0.80;;;21.60;1.00;;;;;;4986815;28;20431;-65
2021/09/25 11:34:54;;;;;;;0.50;0.30;;;21.60;1.00;;;;;;4985885;28;20427;-68
2021/09/25 11:37:20;;;;;;;0.40;0.20;;;21.60;1.00;;;;;;4983027;28;20442;-68
2021/09/25 11:39:47;;;;;;;0.40;0.20;;;21.60;1.00;;;;;;4984979;28;20277;-64
2021/09/25 11:42:16;;;;;;;0.40;0.20;;;21.90;1.00;;;;;;4984869;28;20480;-69
2021/09/25 11:44:44;;;;;;;1.23;1.13;;;22.20;1.00;;;;;;4984772;28;20445;-64
2021/09/25 11:47:10;;;;;;;0.67;0.40;;;22.30;1.00;;;;;;4983636;28;20522;-68
2021/09/25 11:49:36;;;;;;;0.40;0.20;;;22.30;1.00;;;;;;4984897;28;20502;-69
2021/09/25 11:52:03;;;;;;;0.40;0.20;;;22.30;1.00;;;;;;4984558;28;20537;-68
2021/09/25 11:54:28;;;;;;;0.40;0.20;;;22.50;99.90;;;;;;4984767;28;20442;-64
2021/09/25 11:56:54;;;;;;;0.40;0.20;;;22.60;99.90;;;;;;4984997;28;20438;-65
2021/09/25 11:59:21;;;;;;;0.40;0.20;;;23.00;99.90;;;;;;4985778;28;20186;-67
2021/09/25 12:01:47;;;;;;;0.60;0.47;;;23.30;1.00;;;;;;4983854;28;20695;-68
2021/09/25 12:04:14;;;;;;;0.73;0.63;;;23.30;1.00;;;;;;4984523;28;20521;-70
2021/09/25 12:06:58;;;;;;;0.40;0.10;;;23.40;1.00;;;;;;4985489;28;20438;-67
2021/09/25 12:09:41;;;;;;;1.40;1.30;;;22.60;88.70;;;;;;4984728;28;20430;-65
2021/09/25 12:12:07;;;;;;;0.40;0.20;;;22.60;99.90;;;;;;4986106;28;20516;-64
2021/09/25 12:14:40;;;;;;;0.40;0.10;;;22.60;99.90;;;;;;4984806;28;20434;-65
2021/09/25 12:17:11;;;;;;;0.50;0.30;;;22.80;99.90;;;;;;4984995;28;20546;-66
2021/09/25 12:19:36;;;;;;;2.60;1.60;;;22.90;1.00;;;;;;4985333;28;20434;-65
2021/09/25 12:22:02;;;;;;;0.83;0.83;;;22.80;1.00;;;;;;4983120;28;20435;-65
2021/09/25 12:24:29;;;;;;;0.60;0.60;;;23.00;1.00;;;;;;4984903;28;20565;-64
2021/09/25 12:26:55;;;;;;;0.60;0.60;;;22.80;1.00;;;;;;4984305;28;20989;-65
2021/09/25 12:29:21;;;;;;;0.40;0.30;;;22.70;1.00;;;;;;4983441;28;20430;-65
2021/09/25 12:31:57;;;;;;;0.50;0.30;;;22.60;1.00;;;;;;4983867;28;20438;-65
2021/09/25 12:34:24;;;;;;;0.97;0.70;;;22.60;1.00;;;;;;4984113;28;20179;-67
2021/09/25 12:36:53;;;;;;;0.40;0.27;;;22.20;1.00;;;;;;4977111;28;20797;-66
2021/09/25 12:39:30;;;;;;;0.80;0.77;;;22.10;99.90;;;;;;4974734;28;20434;-68
2021/09/25 12:42:01;;;;;;;0.40;0.20;;;21.70;99.90;;;;;;4974522;28;20442;-69
2021/09/25 12:44:34;;;;;;;0.40;0.10;;;21.50;1.00;;;;;;4981398;28;20438;-74
2021/09/25 12:47:00;;;;;;;0.40;0.30;;;21.70;1.00;;;;;;4983122;28;20474;-69